createdAt,value
2022-12-19T00:01:35.512Z,-0.50
2022-12-19T00:04:07.846Z,-0.50
2022-12-19T00:06:36.583Z,-0.40
2022-12-19T00:09:04.631Z,-0.40
2022-12-19T00:11:32.153Z,-0.40
2022-12-19T00:13:59.576Z,-0.30
2022-12-19T00:16:29.353Z,-0.30
2022-12-19T00:19:00.138Z,-0.20
2022-12-19T00:21:29.435Z,-0.20
2022-12-19T00:23:56.278Z,-0.20
2022-12-19T00:26:26.159Z,-0.20
2022-12-19T00:28:55.319Z,-0.20
2022-12-19T00:31:25.616Z,-0.10
2022-12-19T00:33:52.727Z,0.00
2022-12-19T00:36:23.038Z,-0.10
2022-12-19T00:38:51.502Z,-0.10
2022-12-19T00:41:21.475Z,0.00
2022-12-19T00:43:56.848Z,-0.10
2022-12-19T00:46:23.894Z,-0.10
2022-12-19T00:48:51.126Z,0.00
2022-12-19T00:51:21.239Z,0.00
2022-12-19T00:53:50.301Z,0.10
2022-12-19T00:56:20.391Z,0.10
2022-12-19T00:58:47.763Z,0.10
2022-12-19T01:01:17.556Z,0.20
2022-12-19T01:04:04.360Z,0.20
2022-12-19T01:06:31.599Z,0.30
2022-12-19T01:08:58.834Z,0.30
2022-12-19T01:11:44.334Z,0.30
2022-12-19T01:14:16.064Z,0.20
2022-12-19T01:16:45.950Z,0.20
2022-12-19T01:19:12.758Z,0.20
2022-12-19T01:21:39.604Z,0.30
2022-12-19T01:24:06.543Z,0.30
2022-12-19T01:26:33.277Z,0.20
2022-12-19T01:29:00.074Z,0.20
2022-12-19T01:31:26.869Z,0.30
2022-12-19T01:33:53.797Z,0.30
2022-12-19T01:36:21.429Z,0.20
2022-12-19T01:38:48.147Z,0.20
2022-12-19T01:41:15.006Z,0.20
2022-12-19T01:44:02.555Z,0.20
2022-12-19T01:46:38.454Z,0.20
2022-12-19T01:49:10.630Z,0.20
2022-12-19T01:51:45.646Z,0.30
2022-12-19T01:54:19.674Z,0.30
2022-12-19T01:56:50.550Z,0.30
2022-12-19T01:59:21.842Z,0.30
2022-12-19T02:01:52.060Z,0.20
2022-12-19T02:04:20.354Z,0.10
2022-12-19T02:06:48.373Z,0.20
2022-12-19T02:09:15.894Z,0.20
2022-12-19T02:11:42.842Z,0.20
2022-12-19T02:14:09.706Z,0.30
2022-12-19T02:16:55.096Z,0.20
2022-12-19T02:19:21.846Z,0.20
2022-12-19T02:22:06.799Z,0.20
2022-12-19T02:25:28.226Z,0.20
2022-12-19T02:28:21.383Z,0.20
2022-12-19T02:31:18.030Z,0.20
2022-12-19T02:34:11.112Z,0.20
2022-12-19T02:37:07.839Z,0.20
2022-12-19T02:39:43.855Z,0.30
2022-12-19T02:42:14.295Z,0.20
2022-12-19T02:44:50.784Z,0.20
2022-12-19T02:47:19.117Z,0.20
2022-12-19T02:49:45.920Z,0.20
2022-12-19T02:52:21.638Z,0.20
2022-12-19T02:54:58.977Z,0.20
2022-12-19T02:57:33.993Z,0.30
2022-12-19T03:00:10.456Z,0.30
2022-12-19T03:03:14.142Z,0.30
2022-12-19T03:05:45.494Z,0.30
2022-12-19T03:08:46.856Z,0.30
2022-12-19T03:11:15.460Z,0.40
2022-12-19T03:13:56.869Z,0.40
2022-12-19T03:16:24.876Z,0.40
2022-12-19T03:18:55.226Z,0.40
2022-12-19T03:21:29.204Z,0.40
2022-12-19T03:23:57.344Z,0.40
2022-12-19T03:26:28.836Z,0.40
2022-12-19T03:28:58.422Z,0.40
2022-12-19T03:31:29.420Z,0.50
2022-12-19T03:34:00.934Z,0.50
2022-12-19T03:36:33.313Z,0.50
2022-12-19T03:39:03.220Z,0.60
2022-12-19T03:41:50.017Z,0.60
2022-12-19T03:44:19.126Z,0.60
2022-12-19T03:46:54.571Z,0.60
2022-12-19T03:49:21.361Z,0.60
2022-12-19T03:51:59.508Z,0.60
2022-12-19T03:54:32.279Z,0.60
2022-12-19T03:57:28.243Z,0.60
2022-12-19T04:00:21.493Z,0.70
2022-12-19T04:02:49.872Z,0.70
2022-12-19T04:05:23.052Z,0.70
2022-12-19T04:07:52.355Z,0.70
2022-12-19T04:10:23.758Z,0.70
2022-12-19T04:13:03.146Z,0.80
2022-12-19T04:15:54.326Z,0.70
2022-12-19T04:18:22.032Z,0.70
2022-12-19T04:20:58.045Z,0.70
2022-12-19T04:23:34.023Z,0.70
2022-12-19T04:26:04.287Z,0.70
2022-12-19T04:28:38.668Z,0.70
2022-12-19T04:31:06.872Z,0.80
2022-12-19T04:33:33.629Z,0.70
2022-12-19T04:36:00.469Z,0.70
2022-12-19T04:38:27.352Z,0.70
2022-12-19T04:40:54.086Z,0.70
2022-12-19T04:43:20.790Z,0.70
2022-12-19T04:45:49.670Z,0.80
2022-12-19T04:48:19.463Z,0.70
2022-12-19T04:50:46.215Z,0.70
2022-12-19T04:53:12.918Z,0.70
2022-12-19T04:55:41.071Z,0.70
2022-12-19T04:58:08.031Z,0.70
2022-12-19T05:00:34.777Z,0.80
2022-12-19T05:03:01.703Z,0.80
2022-12-19T05:05:28.560Z,0.80
2022-12-19T05:07:58.360Z,0.80
2022-12-19T05:10:25.238Z,0.80
2022-12-19T05:12:53.963Z,0.80
2022-12-19T05:15:20.763Z,0.80
2022-12-19T05:17:47.531Z,0.90
2022-12-19T05:20:14.528Z,0.80
2022-12-19T05:22:41.291Z,0.90
2022-12-19T05:25:08.571Z,0.90
2022-12-19T05:27:35.354Z,0.90
2022-12-19T05:30:02.244Z,0.90
2022-12-19T05:32:32.319Z,0.90
2022-12-19T05:34:59.086Z,0.90
2022-12-19T05:37:25.916Z,1.00
2022-12-19T05:39:52.661Z,1.00
2022-12-19T05:42:19.445Z,1.00
2022-12-19T05:44:46.157Z,1.00
2022-12-19T05:47:12.909Z,1.00
2022-12-19T05:49:42.438Z,1.00
2022-12-19T05:52:11.967Z,1.00
2022-12-19T05:54:38.835Z,1.10
2022-12-19T05:57:05.672Z,1.10
2022-12-19T05:59:32.431Z,1.20
2022-12-19T06:01:59.296Z,1.10
2022-12-19T06:04:26.467Z,1.10
2022-12-19T06:06:53.704Z,1.20
2022-12-19T06:09:20.467Z,1.20
2022-12-19T06:11:47.629Z,1.20
2022-12-19T06:14:14.432Z,1.20
2022-12-19T06:16:41.345Z,1.30
2022-12-19T06:19:08.204Z,1.30
2022-12-19T06:21:35.003Z,1.30
2022-12-19T06:24:01.806Z,1.30
2022-12-19T06:26:28.662Z,1.30
2022-12-19T06:28:55.984Z,1.30
2022-12-19T06:31:25.029Z,1.40
2022-12-19T06:33:52.128Z,1.40
2022-12-19T06:36:30.105Z,1.40
2022-12-19T06:38:58.117Z,1.40
2022-12-19T06:41:44.057Z,1.40
2022-12-19T06:44:12.908Z,1.50
2022-12-19T06:46:40.854Z,1.50
2022-12-19T06:49:08.410Z,1.50
2022-12-19T06:51:35.207Z,1.50
2022-12-19T06:54:02.027Z,1.60
2022-12-19T06:56:28.974Z,1.50
2022-12-19T06:58:56.008Z,1.50
2022-12-19T07:01:52.444Z,1.60
2022-12-19T07:04:29.595Z,1.60
2022-12-19T07:06:56.989Z,1.60
2022-12-19T07:09:23.809Z,1.60
2022-12-19T07:11:59.770Z,1.60
2022-12-19T07:14:26.565Z,1.60
2022-12-19T07:16:54.735Z,1.60
2022-12-19T07:19:22.908Z,1.60
2022-12-19T07:21:49.972Z,1.70
2022-12-19T07:24:16.885Z,1.60
2022-12-19T07:26:44.956Z,1.60
2022-12-19T07:29:12.485Z,1.70
2022-12-19T07:31:39.260Z,1.70
2022-12-19T07:34:06.162Z,1.70
2022-12-19T07:36:33.168Z,1.80
2022-12-19T07:39:00.880Z,1.80
2022-12-19T07:41:27.675Z,1.80
2022-12-19T07:43:54.486Z,1.80
2022-12-19T07:46:22.038Z,1.80
2022-12-19T07:48:48.924Z,1.80
2022-12-19T07:51:15.869Z,1.80
2022-12-19T07:53:42.642Z,1.90
2022-12-19T07:56:09.506Z,1.90
2022-12-19T07:58:36.550Z,1.90
2022-12-19T08:01:03.437Z,2.00
2022-12-19T08:03:33.732Z,2.00
2022-12-19T08:06:01.629Z,1.90
2022-12-19T08:08:30.396Z,2.00
2022-12-19T08:11:09.987Z,2.00
2022-12-19T08:13:40.849Z,2.00
2022-12-19T08:16:10.636Z,2.10
2022-12-19T08:18:37.605Z,2.10
2022-12-19T08:21:04.509Z,2.00
2022-12-19T08:23:31.389Z,2.10
2022-12-19T08:26:02.384Z,2.10
2022-12-19T08:28:29.518Z,2.10
2022-12-19T08:30:56.397Z,2.10
2022-12-19T08:33:23.590Z,2.10
2022-12-19T08:35:50.479Z,2.20
2022-12-19T08:38:17.355Z,2.20
2022-12-19T08:40:47.551Z,2.20
2022-12-19T08:43:14.488Z,2.30
2022-12-19T08:45:41.415Z,2.30
2022-12-19T08:48:08.207Z,2.40
2022-12-19T08:50:34.991Z,2.30
2022-12-19T08:53:02.008Z,2.30
2022-12-19T08:55:29.397Z,2.30
2022-12-19T08:57:57.929Z,2.30
2022-12-19T09:00:24.966Z,2.30
2022-12-19T09:02:52.678Z,2.40
2022-12-19T09:06:01.553Z,2.40
2022-12-19T09:08:06.923Z,2.40
2022-12-19T09:10:36.832Z,2.50
2022-12-19T09:13:04.992Z,2.50
2022-12-19T09:15:31.948Z,2.50
2022-12-19T09:17:59.095Z,2.50
2022-12-19T09:20:25.975Z,2.60
2022-12-19T09:22:53.232Z,2.60
2022-12-19T09:25:20.095Z,2.70
2022-12-19T09:28:25.295Z,2.70
2022-12-19T09:30:33.958Z,2.70
2022-12-19T09:33:02.327Z,2.80
2022-12-19T09:35:30.679Z,2.80
2022-12-19T09:38:00.400Z,2.80
2022-12-19T09:40:35.426Z,2.80
2022-12-19T09:43:22.656Z,2.80
2022-12-19T09:46:04.027Z,2.80
2022-12-19T09:48:30.937Z,2.80
2022-12-19T09:51:09.631Z,2.80
2022-12-19T09:54:09.724Z,2.90
2022-12-19T09:56:46.545Z,2.90
2022-12-19T09:59:33.180Z,3.00
2022-12-19T10:02:23.854Z,3.00
2022-12-19T10:05:03.795Z,3.10
2022-12-19T10:08:07.261Z,3.00
2022-12-19T10:12:38.457Z,3.10
2022-12-19T10:14:09.002Z,3.10
2022-12-19T10:17:15.884Z,3.10
2022-12-19T10:19:43.512Z,3.20
2022-12-19T10:22:43.752Z,3.20
2022-12-19T10:25:36.378Z,3.30
2022-12-19T10:28:15.216Z,3.40
2022-12-19T10:31:12.475Z,3.40
2022-12-19T10:33:48.414Z,3.30
2022-12-19T10:36:15.757Z,3.40
2022-12-19T10:38:58.336Z,3.40
2022-12-19T10:41:31.846Z,3.40
2022-12-19T10:44:09.746Z,3.50
2022-12-19T10:46:46.952Z,3.50
2022-12-19T10:49:23.029Z,3.60
2022-12-19T10:52:11.204Z,3.60
2022-12-19T10:54:38.101Z,3.60
2022-12-19T10:57:24.251Z,3.60
2022-12-19T10:59:59.950Z,3.60
2022-12-19T11:02:44.700Z,3.60
2022-12-19T11:05:25.557Z,3.60
2022-12-19T11:08:15.659Z,3.60
2022-12-19T11:12:50.573Z,3.60
2022-12-19T11:18:17.662Z,3.60
2022-12-19T11:23:49.535Z,3.60
2022-12-19T11:29:25.302Z,3.70
2022-12-19T11:29:34.919Z,3.70
2022-12-19T11:30:09.923Z,3.70
2022-12-19T11:30:46.768Z,3.70
2022-12-19T11:34:19.455Z,3.80
2022-12-19T11:36:49.268Z,3.80
2022-12-19T11:39:41.847Z,3.80
2022-12-19T11:42:22.245Z,3.70
2022-12-19T11:45:06.326Z,3.80
2022-12-19T11:47:44.052Z,3.80
2022-12-19T11:50:22.088Z,3.80
2022-12-19T11:53:37.203Z,3.90
2022-12-19T11:56:08.118Z,4.00
2022-12-19T11:58:50.804Z,4.00
2022-12-19T12:01:31.888Z,4.10
2022-12-19T12:04:20.208Z,4.10
2022-12-19T12:06:54.759Z,4.20
2022-12-19T12:14:07.973Z,4.20
2022-12-19T12:22:27.341Z,4.30
2022-12-19T12:29:36.606Z,4.40
2022-12-19T12:31:15.620Z,4.40
2022-12-19T12:31:26.202Z,4.40
2022-12-19T12:32:05.782Z,4.40
2022-12-19T12:32:06.756Z,4.40
2022-12-19T12:35:46.744Z,4.40
2022-12-19T12:38:26.619Z,4.60
2022-12-19T12:41:16.284Z,4.60
2022-12-19T12:44:12.279Z,5.00
2022-12-19T12:47:21.464Z,5.20
2022-12-19T12:50:00.586Z,5.30
2022-12-19T12:52:38.549Z,5.30
2022-12-19T12:55:14.960Z,5.20
2022-12-19T12:57:41.859Z,5.40
2022-12-19T13:00:18.218Z,5.40
2022-12-19T13:02:50.875Z,5.50
2022-12-19T13:05:30.281Z,5.50
2022-12-19T13:07:57.067Z,5.50
2022-12-19T13:10:29.683Z,5.60
2022-12-19T13:13:17.424Z,5.50
2022-12-19T13:15:46.981Z,5.50
2022-12-19T13:18:34.951Z,5.40
2022-12-19T13:21:05.866Z,5.30
2022-12-19T13:23:34.787Z,5.40
2022-12-19T13:26:02.160Z,5.50
2022-12-19T13:28:29.080Z,5.60
2022-12-19T13:31:20.426Z,5.50
2022-12-19T13:33:55.944Z,5.60
2022-12-19T13:39:54.911Z,5.70
2022-12-19T13:40:00.874Z,5.60
2022-12-19T13:43:43.577Z,5.60
2022-12-19T13:46:44.420Z,5.80
2022-12-19T13:49:34.419Z,5.80
2022-12-19T13:52:05.257Z,5.80
2022-12-19T13:54:37.608Z,5.80
2022-12-19T13:57:30.023Z,5.80
2022-12-19T14:00:09.004Z,5.80
2022-12-19T14:02:45.938Z,5.80
2022-12-19T14:05:32.234Z,5.80
2022-12-19T14:08:23.096Z,5.80
2022-12-19T14:11:39.675Z,5.80
2022-12-19T14:14:16.138Z,5.80
2022-12-19T14:16:46.980Z,5.80
2022-12-19T14:19:27.948Z,5.70
2022-12-19T14:22:10.741Z,5.70
2022-12-19T14:24:42.135Z,5.70
2022-12-19T14:28:22.352Z,5.70
2022-12-19T14:30:29.270Z,5.70
2022-12-19T14:33:43.625Z,5.70
2022-12-19T14:36:09.840Z,5.80
2022-12-19T14:39:23.551Z,5.70
2022-12-19T14:42:02.283Z,5.90
2022-12-19T14:52:11.609Z,5.80
2022-12-19T14:52:51.556Z,5.90
2022-12-19T14:54:01.753Z,5.80
2022-12-19T14:54:40.478Z,5.70
2022-12-19T14:56:46.669Z,5.80
2022-12-19T14:59:47.911Z,5.70
2022-12-19T15:02:32.655Z,5.70
2022-12-19T15:05:07.523Z,5.80
2022-12-19T15:07:34.930Z,5.70
2022-12-19T15:11:05.666Z,5.80
2022-12-19T15:14:51.086Z,5.70
2022-12-19T15:16:26.727Z,5.70
2022-12-19T15:19:01.688Z,5.70
2022-12-19T15:21:30.219Z,5.70
2022-12-19T15:23:57.276Z,5.80
2022-12-19T15:26:27.812Z,5.80
2022-12-19T15:28:56.938Z,5.80
2022-12-19T15:31:39.170Z,5.80
2022-12-19T15:34:40.039Z,5.80
2022-12-19T15:37:14.053Z,5.80
2022-12-19T15:39:41.775Z,5.80
2022-12-19T15:42:27.930Z,5.80
2022-12-19T15:44:57.980Z,5.80
2022-12-19T15:47:34.197Z,5.70
2022-12-19T15:50:03.970Z,5.70
2022-12-19T15:52:30.874Z,5.80
2022-12-19T15:54:57.801Z,5.80
2022-12-19T15:57:47.962Z,5.80
2022-12-19T16:00:23.667Z,5.80
2022-12-19T16:05:39.357Z,5.70
2022-12-19T16:08:20.850Z,5.70
2022-12-19T16:10:56.039Z,5.70
2022-12-19T16:13:35.456Z,5.80
2022-12-19T16:16:09.213Z,5.70
2022-12-19T16:18:42.759Z,5.70
2022-12-19T16:21:27.461Z,5.70
2022-12-19T16:23:58.408Z,5.70
2022-12-19T16:26:33.209Z,5.60
2022-12-19T16:29:00.805Z,5.60
2022-12-19T16:31:28.329Z,5.60
2022-12-19T16:33:55.840Z,5.70
2022-12-19T16:36:22.776Z,5.60
2022-12-19T16:38:50.057Z,5.60
2022-12-19T16:41:23.899Z,5.60
2022-12-19T16:43:51.479Z,5.70
2022-12-19T16:46:21.574Z,5.80
2022-12-19T16:48:54.971Z,5.80
2022-12-19T16:51:24.091Z,5.80
2022-12-19T16:53:52.996Z,5.80
2022-12-19T16:56:43.215Z,5.70
2022-12-19T16:59:22.676Z,5.60
2022-12-19T17:01:49.704Z,5.50
2022-12-19T17:04:22.225Z,5.50
2022-12-19T17:06:52.874Z,5.40
2022-12-19T17:09:24.031Z,5.40
2022-12-19T17:11:54.058Z,5.40
2022-12-19T17:14:31.635Z,5.30
2022-12-19T17:16:59.525Z,5.40
2022-12-19T17:19:41.591Z,5.40
2022-12-19T17:22:12.931Z,5.50
2022-12-19T17:24:39.756Z,5.50
2022-12-19T17:27:06.547Z,5.60
2022-12-19T17:29:33.386Z,5.50
2022-12-19T17:32:00.422Z,5.40
2022-12-19T17:34:33.864Z,5.40
2022-12-19T17:37:03.177Z,5.30
2022-12-19T17:39:31.681Z,5.30
2022-12-19T17:42:02.289Z,5.50
2022-12-19T17:44:29.037Z,5.60
2022-12-19T17:46:55.856Z,5.80
2022-12-19T17:49:31.216Z,6.10
2022-12-19T17:51:59.655Z,6.10
2022-12-19T17:54:27.264Z,6.10
2022-12-19T17:56:55.578Z,6.00
2022-12-19T17:59:22.375Z,6.10
2022-12-19T18:01:49.658Z,6.00
2022-12-19T18:04:21.514Z,6.00
2022-12-19T18:06:49.318Z,6.00
2022-12-19T18:09:22.035Z,6.00
2022-12-19T18:11:50.683Z,6.00
2022-12-19T18:14:18.300Z,6.10
2022-12-19T18:16:46.153Z,6.10
2022-12-19T18:19:23.401Z,6.30
2022-12-19T18:21:50.462Z,6.30
2022-12-19T18:24:17.670Z,6.50
2022-12-19T18:26:45.332Z,6.70
2022-12-19T18:29:12.532Z,6.70
2022-12-19T18:31:43.625Z,6.80
2022-12-19T18:34:22.017Z,6.80
2022-12-19T18:36:49.095Z,6.90
2022-12-19T18:39:24.612Z,7.10
2022-12-19T18:41:52.904Z,7.20
2022-12-19T18:44:20.343Z,7.30
2022-12-19T18:46:49.817Z,7.40
2022-12-19T18:49:17.178Z,7.40
2022-12-19T18:51:47.703Z,7.40
2022-12-19T18:54:17.313Z,7.20
2022-12-19T18:56:44.906Z,7.20
2022-12-19T18:59:11.939Z,7.20
2022-12-19T19:01:46.450Z,7.20
2022-12-19T19:04:17.928Z,7.20
2022-12-19T19:06:50.894Z,7.20
2022-12-19T19:09:19.569Z,7.20
2022-12-19T19:11:46.368Z,7.30
2022-12-19T19:14:13.293Z,7.40
2022-12-19T19:16:40.418Z,7.40
2022-12-19T19:19:10.402Z,7.30
2022-12-19T19:21:38.167Z,7.30
2022-12-19T19:24:14.897Z,7.30
2022-12-19T19:26:41.686Z,7.30
2022-12-19T19:29:09.685Z,7.40
2022-12-19T19:31:40.787Z,7.30
2022-12-19T19:34:35.241Z,7.30
2022-12-19T19:37:03.997Z,7.20
2022-12-19T19:39:33.676Z,7.20
2022-12-19T19:42:01.119Z,7.00
2022-12-19T19:44:28.365Z,7.00
2022-12-19T19:46:55.337Z,7.00
2022-12-19T19:49:22.867Z,7.00
2022-12-19T19:51:50.016Z,6.90
2022-12-19T19:54:16.833Z,6.90
2022-12-19T19:56:43.755Z,7.00
2022-12-19T19:59:10.879Z,7.50
2022-12-19T20:01:37.858Z,8.00
2022-12-19T20:04:05.030Z,8.10
2022-12-19T20:06:32.096Z,8.20
2022-12-19T20:08:58.864Z,8.70
2022-12-19T20:11:25.770Z,8.90
2022-12-19T20:13:52.571Z,9.00
2022-12-19T20:16:19.713Z,9.60
2022-12-19T20:18:49.389Z,9.80
2022-12-19T20:21:17.275Z,9.90
2022-12-19T20:23:44.411Z,10.10
2022-12-19T20:26:13.621Z,10.20
2022-12-19T20:28:47.910Z,10.30
2022-12-19T20:31:20.049Z,10.40
2022-12-19T20:33:48.631Z,10.30
2022-12-19T20:36:16.772Z,10.40
2022-12-19T20:38:43.683Z,10.50
2022-12-19T20:41:10.711Z,10.60
2022-12-19T20:43:38.625Z,10.60
2022-12-19T20:46:09.460Z,10.50
2022-12-19T20:48:37.135Z,10.60
2022-12-19T20:51:04.856Z,10.60
2022-12-19T20:53:36.315Z,10.70
2022-12-19T20:56:04.890Z,10.70
2022-12-19T20:58:34.770Z,10.70
2022-12-19T21:01:11.928Z,10.70
2022-12-19T21:03:39.702Z,10.70
2022-12-19T21:06:08.591Z,10.70
2022-12-19T21:08:35.624Z,10.70
2022-12-19T21:11:03.811Z,10.60
2022-12-19T21:13:30.664Z,10.60
2022-12-19T21:15:59.743Z,10.80
2022-12-19T21:18:26.998Z,10.70
2022-12-19T21:20:54.570Z,10.70
2022-12-19T21:23:21.788Z,10.70
2022-12-19T21:25:48.561Z,10.70
2022-12-19T21:28:15.488Z,10.90
2022-12-19T21:30:42.381Z,10.90
2022-12-19T21:33:09.334Z,10.90
2022-12-19T21:35:36.273Z,11.00
2022-12-19T21:38:03.077Z,11.00
2022-12-19T21:40:29.927Z,11.00
2022-12-19T21:42:56.681Z,11.00
2022-12-19T21:45:23.453Z,11.00
2022-12-19T21:47:50.626Z,11.00
2022-12-19T21:50:17.496Z,10.90
2022-12-19T21:52:44.550Z,10.90
2022-12-19T21:55:11.363Z,10.90
2022-12-19T21:57:39.998Z,11.00
2022-12-19T22:00:09.352Z,11.10
2022-12-19T22:02:36.343Z,11.00
2022-12-19T22:05:04.195Z,11.10
2022-12-19T22:07:31.014Z,11.30
2022-12-19T22:09:57.876Z,11.20
2022-12-19T22:12:24.771Z,11.30
2022-12-19T22:14:52.535Z,11.30
2022-12-19T22:17:19.336Z,11.30
2022-12-19T22:19:46.164Z,11.30
2022-12-19T22:22:12.982Z,11.40
2022-12-19T22:24:39.751Z,11.40
2022-12-19T22:27:06.687Z,11.50
2022-12-19T22:29:36.565Z,11.40
2022-12-19T22:32:04.517Z,11.40
2022-12-19T22:34:31.349Z,11.40
2022-12-19T22:36:58.161Z,11.40
2022-12-19T22:39:25.105Z,11.50
2022-12-19T22:41:52.105Z,11.50
2022-12-19T22:44:21.702Z,11.50
2022-12-19T22:46:49.173Z,11.50
2022-12-19T22:49:16.472Z,11.50
2022-12-19T22:51:43.668Z,11.60
2022-12-19T22:54:11.706Z,11.60
2022-12-19T22:56:39.538Z,11.70
2022-12-19T22:59:08.496Z,11.70
2022-12-19T23:01:41.240Z,11.80
2022-12-19T23:04:10.701Z,11.90
2022-12-19T23:06:38.318Z,11.90
2022-12-19T23:09:09.724Z,11.80
2022-12-19T23:11:39.047Z,11.80
2022-12-19T23:14:08.229Z,11.90
2022-12-19T23:16:35.300Z,11.80
2022-12-19T23:19:02.131Z,11.80
2022-12-19T23:21:30.372Z,11.80
2022-12-19T23:23:57.259Z,11.90
2022-12-19T23:26:29.612Z,11.90
2022-12-19T23:28:59.638Z,11.90
2022-12-19T23:31:27.331Z,11.80
2022-12-19T23:33:55.063Z,11.80
2022-12-19T23:36:38.517Z,11.80
2022-12-19T23:39:11.108Z,11.80
2022-12-19T23:41:38.195Z,11.80
2022-12-19T23:44:05.269Z,11.80
2022-12-19T23:46:32.129Z,11.80
2022-12-19T23:48:58.933Z,11.90
2022-12-19T23:51:27.529Z,12.00
2022-12-19T23:53:55.693Z,12.00
2022-12-19T23:56:27.629Z,12.10
2022-12-19T23:58:55.096Z,12.10
